Time;durP1;ratioP1;P1;durP2;ratioP2;P2;SDS_P1;SDS_P2;PMS_P1;PMS_P2;Temp;Humidity;BMP_temperature;BMP_pressure;BME280_temperature;BME280_humidity;BME280_pressure;Samples;Min_cycle;Max_cycle;Signal;HPM_P1;HPM_P2
2021/11/25 00:00:52;;;;;;;15.98;11.82;;;9.00;77.40;;;;;;5029675;28;20025;-82
2021/11/25 00:03:18;;;;;;;13.63;11.38;;;9.00;77.40;;;;;;5023518;28;20080;-85
2021/11/25 00:05:44;;;;;;;15.38;11.82;;;9.00;77.40;;;;;;5009528;28;20033;-83
2021/11/25 00:08:11;;;;;;;16.25;11.43;;;9.00;77.40;;;;;;5010250;28;20030;-82
2021/11/25 00:10:37;;;;;;;16.88;11.98;;;9.00;77.40;;;;;;5008033;28;20055;-79
2021/11/25 00:13:04;;;;;;;16.38;11.98;;;9.00;77.40;;;;;;5009115;28;20046;-76
2021/11/25 00:15:30;;;;;;;13.80;11.23;;;9.00;77.90;;;;;;5009736;28;20125;-81
2021/11/25 00:17:56;;;;;;;13.25;11.02;;;8.90;77.30;;;;;;5008983;28;20786;-79
2021/11/25 00:20:22;;;;;;;12.70;10.77;;;8.90;77.30;;;;;;5008683;28;20030;-78
2021/11/25 00:22:48;;;;;;;13.00;10.82;;;8.90;77.30;;;;;;5008849;28;20088;-80
2021/11/25 00:25:14;;;;;;;12.88;11.07;;;9.00;77.90;;;;;;5008749;28;20356;-78
2021/11/25 00:27:41;;;;;;;13.95;10.57;;;9.00;77.40;;;;;;5009031;28;20040;-82
2021/11/25 00:30:08;;;;;;;12.15;9.82;;;9.00;77.50;;;;;;5007069;28;20053;-76
2021/11/25 00:32:35;;;;;;;13.10;10.50;;;9.00;77.40;;;;;;5008504;28;20608;-77
2021/11/25 00:35:01;;;;;;;15.10;11.30;;;8.90;77.30;;;;;;5006946;28;20080;-81
2021/11/25 00:37:27;;;;;;;13.93;10.90;;;9.00;77.40;;;;;;5009483;28;20044;-80
2021/11/25 00:39:53;;;;;;;12.00;10.10;;;9.00;77.40;;;;;;5006985;28;20029;-77
2021/11/25 00:42:19;;;;;;;14.00;9.73;;;9.00;77.50;;;;;;5008895;28;20060;-79
2021/11/25 00:44:46;;;;;;;14.57;10.27;;;9.00;77.50;;;;;;5008314;28;20037;-79
2021/11/25 00:47:12;;;;;;;13.38;10.68;;;8.90;77.30;;;;;;5008371;28;20061;-76
2021/11/25 00:49:38;;;;;;;10.25;8.75;;;9.00;77.40;;;;;;5019699;28;20083;-74
2021/11/25 00:52:04;;;;;;;13.93;9.95;;;9.00;77.50;;;;;;5028167;28;20033;-76
2021/11/25 00:54:30;;;;;;;10.27;9.15;;;9.00;77.50;;;;;;5010346;28;20025;-76
2021/11/25 00:56:56;;;;;;;10.27;8.88;;;8.90;77.30;;;;;;5027049;28;20033;-75
2021/11/25 00:59:22;;;;;;;12.10;8.90;;;8.90;77.20;;;;;;5028721;28;20036;-77
2021/11/25 01:01:48;;;;;;;10.60;8.27;;;9.00;77.40;;;;;;5027935;28;20099;-77
2021/11/25 01:04:14;;;;;;;13.73;8.05;;;9.00;77.40;;;;;;5026379;28;20254;-76
2021/11/25 01:06:40;;;;;;;12.05;8.38;;;8.90;77.20;;;;;;5026590;28;20543;-75
2021/11/25 01:09:06;;;;;;;10.93;7.53;;;8.90;77.20;;;;;;5027531;28;20025;-75
2021/11/25 01:11:32;;;;;;;10.23;7.68;;;8.90;77.20;;;;;;5028152;28;20124;-74
2021/11/25 01:13:58;;;;;;;8.52;7.00;;;8.90;77.20;;;;;;5027441;28;20120;-74
2021/11/25 01:16:24;;;;;;;10.60;6.60;;;8.90;77.20;;;;;;5026400;28;20495;-76
2021/11/25 01:18:50;;;;;;;9.45;6.40;;;8.90;77.20;;;;;;5027222;28;20033;-74
2021/11/25 01:21:17;;;;;;;8.77;6.57;;;8.90;77.20;;;;;;5028057;28;20053;-75
2021/11/25 01:23:43;;;;;;;11.13;6.70;;;8.90;77.20;;;;;;5026751;28;20403;-75
2021/11/25 01:26:09;;;;;;;8.45;6.22;;;8.80;77.00;;;;;;5027696;28;20489;-76
2021/11/25 01:28:36;;;;;;;10.90;5.95;;;8.80;77.00;;;;;;5027716;28;20132;-79
2021/11/25 01:31:03;;;;;;;8.30;6.43;;;8.90;77.20;;;;;;5027168;28;20069;-75
2021/11/25 01:33:31;;;;;;;9.35;6.32;;;8.80;77.00;;;;;;5020699;28;20034;-77
2021/11/25 01:35:58;;;;;;;9.65;5.75;;;8.80;77.00;;;;;;5006333;28;20084;-77
2021/11/25 01:38:25;;;;;;;8.32;6.35;;;8.90;77.20;;;;;;5007744;28;20445;-75
2021/11/25 01:40:53;;;;;;;6.88;5.25;;;8.80;77.00;;;;;;5007326;28;20065;-77
2021/11/25 01:43:22;;;;;;;9.05;5.38;;;8.80;77.00;;;;;;5007407;28;20030;-78
2021/11/25 01:45:53;;;;;;;8.00;5.50;;;8.80;77.00;;;;;;5005306;28;20045;-78
2021/11/25 01:48:20;;;;;;;6.32;4.78;;;8.80;77.00;;;;;;5007046;28;20045;-80
2021/11/25 01:50:49;;;;;;;6.53;4.78;;;8.80;77.00;;;;;;5005858;28;20034;-77
2021/11/25 01:53:16;;;;;;;6.47;4.90;;;8.80;76.90;;;;;;5007179;28;20140;-81
2021/11/25 01:55:42;;;;;;;5.63;4.05;;;8.80;76.90;;;;;;5007324;28;20392;-80
2021/11/25 01:58:08;;;;;;;6.78;4.60;;;8.80;76.90;;;;;;5007756;28;20034;-78
2021/11/25 02:00:41;;;;;;;8.43;5.60;;;8.80;76.90;;;;;;5007105;28;20442;-80
2021/11/25 02:03:08;;;;;;;6.22;4.25;;;8.80;76.90;;;;;;5007283;28;20037;-76
2021/11/25 02:05:35;;;;;;;9.02;3.88;;;8.80;76.90;;;;;;5005995;28;20033;-86
2021/11/25 02:08:02;;;;;;;6.97;4.07;;;8.80;76.90;;;;;;5007036;28;20125;-79
2021/11/25 02:10:29;;;;;;;6.20;4.00;;;8.80;76.80;;;;;;5006442;28;20030;-78
2021/11/25 02:12:55;;;;;;;6.63;4.18;;;8.80;76.80;;;;;;5005847;28;20121;-87
2021/11/25 02:15:21;;;;;;;5.28;3.78;;;8.80;76.80;;;;;;5007398;28;20938;-77
2021/11/25 02:17:47;;;;;;;6.55;3.85;;;8.80;76.80;;;;;;5007366;28;20117;-80
2021/11/25 02:20:14;;;;;;;5.40;3.70;;;8.80;76.80;;;;;;5005431;28;20160;-83
2021/11/25 02:22:42;;;;;;;5.70;3.42;;;8.80;76.80;;;;;;5005965;28;20030;-76
2021/11/25 02:25:10;;;;;;;11.32;3.70;;;8.80;76.80;;;;;;5007066;28;20030;-79
2021/11/25 02:27:36;;;;;;;5.65;3.83;;;8.80;76.80;;;;;;5007302;28;20663;-78
2021/11/25 02:30:05;;;;;;;5.30;3.28;;;8.70;76.60;;;;;;5006262;28;20037;-76
2021/11/25 02:32:32;;;;;;;6.35;3.53;;;8.80;76.80;;;;;;5012989;28;20700;-83
2021/11/25 02:34:59;;;;;;;6.35;3.28;;;8.70;76.50;;;;;;5027407;28;20025;-77
2021/11/25 02:37:26;;;;;;;7.80;3.80;;;8.80;76.70;;;;;;5028105;28;20445;-80
2021/11/25 02:39:53;;;;;;;5.55;3.17;;;8.70;76.50;;;;;;5013830;28;20277;-82
2021/11/25 02:42:19;;;;;;;4.07;2.47;;;8.70;76.50;;;;;;5006731;28;20034;-77
2021/11/25 02:44:45;;;;;;;8.07;3.00;;;8.80;76.70;;;;;;5007166;28;20080;-79
2021/11/25 02:47:11;;;;;;;7.22;3.17;;;8.80;76.60;;;;;;5021652;28;20054;-81
2021/11/25 02:49:43;;;;;;;3.88;2.20;;;8.80;76.60;;;;;;5030282;28;20420;-77
2021/11/25 02:52:09;;;;;;;4.25;2.05;;;8.80;76.60;;;;;;5025406;28;20037;-77
2021/11/25 02:54:35;;;;;;;4.75;2.47;;;8.80;76.50;;;;;;4993663;28;20080;-76
2021/11/25 02:57:02;;;;;;;4.95;2.92;;;8.80;76.50;;;;;;5017844;28;20032;-82
2021/11/25 02:59:28;;;;;;;3.08;2.13;;;8.80;76.40;;;;;;5033497;28;20060;-80
2021/11/25 03:01:54;;;;;;;6.03;2.25;;;8.80;76.40;;;;;;5034648;28;20065;-76
2021/11/25 03:04:20;;;;;;;5.38;2.10;;;8.80;76.40;;;;;;5017387;28;20029;-79
2021/11/25 03:06:46;;;;;;;5.97;2.40;;;8.80;76.30;;;;;;5034529;28;20498;-78
2021/11/25 03:09:12;;;;;;;8.35;3.20;;;8.80;76.30;;;;;;5029804;28;20025;-81
2021/11/25 03:11:38;;;;;;;6.03;2.53;;;8.80;76.30;;;;;;5024961;28;20038;-81
2021/11/25 03:14:08;;;;;;;5.38;2.25;;;8.80;76.30;;;;;;5014833;28;20022;-76
2021/11/25 03:16:34;;;;;;;4.88;2.20;;;8.80;76.30;;;;;;5030937;28;20536;-83
2021/11/25 03:19:01;;;;;;;4.72;2.05;;;8.80;76.20;;;;;;5034445;28;20028;-79
2021/11/25 03:21:28;;;;;;;2.70;1.58;;;8.80;76.20;;;;;;5034356;28;20115;-81
2021/11/25 03:23:54;;;;;;;5.57;2.15;;;8.70;76.00;;;;;;5034542;28;20667;-77
2021/11/25 03:26:24;;;;;;;5.15;1.77;;;8.70;76.00;;;;;;5034175;28;20040;-77
2021/11/25 03:28:50;;;;;;;4.05;1.85;;;8.80;76.20;;;;;;5033198;28;20033;-76
2021/11/25 03:31:25;;;;;;;5.38;1.80;;;8.80;76.60;;;;;;5034148;28;20037;-79
2021/11/25 03:33:52;;;;;;;4.03;1.92;;;8.80;76.10;;;;;;5034567;28;20500;-82
2021/11/25 03:36:19;;;;;;;3.28;2.03;;;8.70;75.90;;;;;;5034043;28;20040;-77
2021/11/25 03:38:45;;;;;;;4.60;1.85;;;8.80;76.00;;;;;;5034185;28;20029;-76
2021/11/25 03:41:13;;;;;;;4.63;1.88;;;8.70;75.90;;;;;;5033413;28;20484;-78
2021/11/25 03:43:39;;;;;;;3.30;1.70;;;8.70;75.90;;;;;;5032550;28;20025;-75
2021/11/25 03:46:06;;;;;;;5.88;2.42;;;8.70;75.90;;;;;;5033765;28;20554;-79
2021/11/25 03:48:32;;;;;;;6.43;2.90;;;8.70;75.90;;;;;;5032586;28;20129;-82
2021/11/25 03:51:00;;;;;;;3.28;1.65;;;8.70;75.90;;;;;;5033030;28;20429;-76
2021/11/25 03:53:28;;;;;;;5.07;1.85;;;8.70;75.80;;;;;;5032178;28;20038;-82
2021/11/25 03:55:54;;;;;;;3.95;1.65;;;8.70;75.80;;;;;;5032933;28;20033;-83
2021/11/25 03:58:20;;;;;;;4.22;1.90;;;8.70;75.80;;;;;;5033862;28;20052;-80
2021/11/25 04:00:48;;;;;;;2.55;1.45;;;8.70;75.80;;;;;;5033477;28;20112;-79
2021/11/25 04:03:14;;;;;;;6.05;1.80;;;8.70;75.80;;;;;;5032782;28;20481;-81
2021/11/25 04:05:41;;;;;;;3.63;1.48;;;8.70;75.80;;;;;;5032134;28;20128;-78
2021/11/25 04:08:07;;;;;;;5.13;1.52;;;8.70;75.70;;;;;;5033866;28;20104;-79
2021/11/25 04:10:33;;;;;;;3.55;1.50;;;8.70;75.70;;;;;;5032966;28;20091;-81
2021/11/25 04:12:59;;;;;;;4.25;1.77;;;8.60;75.50;;;;;;5033065;28;20030;-80
2021/11/25 04:15:25;;;;;;;2.72;1.40;;;8.70;75.70;;;;;;5032235;28;20113;-82
2021/11/25 04:17:51;;;;;;;4.18;1.50;;;8.70;76.20;;;;;;5033372;28;20440;-82
2021/11/25 04:20:17;;;;;;;4.53;1.42;;;8.60;75.50;;;;;;5033770;28;20033;-83
2021/11/25 04:22:44;;;;;;;4.80;1.70;;;8.60;75.50;;;;;;5033315;28;20825;-78
2021/11/25 04:25:11;;;;;;;3.88;1.80;;;8.60;75.50;;;;;;5033300;28;20076;-77
2021/11/25 04:27:37;;;;;;;3.90;1.50;;;8.50;75.30;;;;;;5033781;28;20469;-79
2021/11/25 04:35:32;;;;;;;4.13;1.42;;;8.50;75.30;;;;;;5033066;28;20117;-77
2021/11/25 04:38:06;;;;;;;3.53;1.25;;;8.50;75.30;;;;;;5032873;28;20116;-78
2021/11/25 04:40:43;;;;;;;3.78;1.50;;;8.50;75.30;;;;;;5031999;28;20013;-82
2021/11/25 04:43:10;;;;;;;2.63;1.17;;;8.50;75.30;;;;;;5031246;28;20037;-80
2021/11/25 04:45:38;;;;;;;3.05;1.48;;;8.40;75.10;;;;;;5033013;28;20097;-84
2021/11/25 04:48:05;;;;;;;3.35;1.02;;;8.40;75.10;;;;;;5032845;28;20048;-85
2021/11/25 04:50:31;;;;;;;2.88;1.08;;;8.40;75.10;;;;;;5033055;28;20071;-85
2021/11/25 04:52:59;;;;;;;2.95;1.50;;;8.40;75.10;;;;;;5032911;28;20579;-78
2021/11/25 04:55:25;;;;;;;3.63;1.40;;;8.40;75.10;;;;;;5033079;28;20036;-84
2021/11/25 04:57:51;;;;;;;3.00;1.35;;;8.30;74.90;;;;;;5032460;28;20124;-75
2021/11/25 05:00:18;;;;;;;1.80;1.00;;;8.30;74.90;;;;;;5031443;28;20116;-78
2021/11/25 05:02:44;;;;;;;4.25;1.20;;;8.30;74.90;;;;;;5015046;28;20029;-80
2021/11/25 05:05:10;;;;;;;8.90;1.95;;;8.30;74.90;;;;;;5032173;28;20029;-81
2021/11/25 05:07:37;;;;;;;6.35;2.13;;;8.20;74.80;;;;;;5032720;28;20025;-81
2021/11/25 05:10:05;;;;;;;2.97;1.30;;;8.20;74.80;;;;;;5031194;28;20378;-80
2021/11/25 05:12:31;;;;;;;3.33;0.93;;;8.20;74.80;;;;;;5030885;28;20068;-78
2021/11/25 05:14:57;;;;;;;4.65;1.60;;;8.20;74.80;;;;;;5032634;28;20057;-81
2021/11/25 05:17:24;;;;;;;3.78;1.05;;;8.10;74.60;;;;;;5014415;28;20041;-80
2021/11/25 05:19:50;;;;;;;3.83;1.52;;;8.10;74.60;;;;;;5032489;28;20056;-78
2021/11/25 05:22:16;;;;;;;5.13;1.00;;;8.10;74.60;;;;;;5031028;28;20029;-77
2021/11/25 05:24:42;;;;;;;3.70;1.17;;;8.00;74.50;;;;;;5032520;28;20467;-78
2021/11/25 05:27:09;;;;;;;1.85;0.88;;;8.00;74.50;;;;;;5031072;28;20057;-79
2021/11/25 05:29:36;;;;;;;3.70;1.23;;;8.00;74.50;;;;;;5014014;28;20037;-80
2021/11/25 05:32:05;;;;;;;3.88;1.25;;;8.00;74.50;;;;;;5032167;28;20056;-80
2021/11/25 05:34:31;;;;;;;3.35;1.55;;;7.90;74.30;;;;;;5033027;28;20022;-78
2021/11/25 05:36:57;;;;;;;6.68;1.00;;;7.90;74.40;;;;;;5032234;28;20056;-80
2021/11/25 05:39:23;;;;;;;3.22;1.23;;;7.90;74.40;;;;;;5031569;28;20037;-78
2021/11/25 05:41:49;;;;;;;3.28;1.08;;;7.80;74.20;;;;;;5030422;28;20083;-80
2021/11/25 05:44:15;;;;;;;2.13;0.93;;;7.80;74.20;;;;;;5031152;28;20538;-84
2021/11/25 05:46:41;;;;;;;3.67;0.95;;;7.80;74.20;;;;;;5031415;28;20049;-79
2021/11/25 05:49:07;;;;;;;2.85;1.00;;;7.80;74.20;;;;;;5019943;28;20114;-75
2021/11/25 05:51:34;;;;;;;3.20;1.20;;;7.70;74.00;;;;;;5029225;28;20041;-79
2021/11/25 05:54:01;;;;;;;3.35;0.93;;;7.70;74.10;;;;;;5028151;28;20039;-84
2021/11/25 05:56:27;;;;;;;5.90;1.00;;;7.70;74.00;;;;;;5029031;28;20029;-78
2021/11/25 05:58:55;;;;;;;5.70;1.48;;;7.60;73.90;;;;;;5028561;28;20036;-77
2021/11/25 06:01:23;;;;;;;3.88;1.17;;;7.60;73.90;;;;;;5023459;28;20513;-79
2021/11/25 06:03:52;;;;;;;4.65;1.17;;;7.60;73.90;;;;;;5018362;28;20436;-77
2021/11/25 06:06:18;;;;;;;3.65;0.90;;;7.50;73.80;;;;;;5009724;28;20488;-76
2021/11/25 06:08:44;;;;;;;2.72;0.75;;;7.50;73.80;;;;;;5016193;28;20030;-82
2021/11/25 06:11:10;;;;;;;4.50;1.35;;;7.50;73.90;;;;;;5022296;28;20445;-79
2021/11/25 06:13:36;;;;;;;3.42;0.80;;;7.40;73.70;;;;;;5006608;28;20034;-79
2021/11/25 06:16:03;;;;;;;2.67;1.23;;;7.40;73.70;;;;;;5014296;28;20042;-77
2021/11/25 06:18:28;;;;;;;2.47;0.90;;;7.40;73.80;;;;;;5007427;28;20033;-82
2021/11/25 06:20:54;;;;;;;3.35;1.48;;;7.40;73.80;;;;;;5006595;28;20087;-79
2021/11/25 06:23:21;;;;;;;3.40;1.05;;;7.30;74.20;;;;;;5012825;28;20021;-85
2021/11/25 06:25:47;;;;;;;3.88;1.13;;;7.30;73.70;;;;;;5017584;28;20487;-75
2021/11/25 06:28:13;;;;;;;3.17;0.90;;;7.30;73.80;;;;;;5024605;28;20136;-78
2021/11/25 06:30:39;;;;;;;7.30;1.23;;;7.30;73.80;;;;;;5021826;28;20029;-78
2021/11/25 06:33:06;;;;;;;4.72;1.00;;;7.30;73.90;;;;;;5006402;28;20096;-79
2021/11/25 06:35:32;;;;;;;3.05;0.77;;;7.30;74.10;;;;;;5005474;28;20468;-77
2021/11/25 06:37:59;;;;;;;5.32;1.10;;;7.30;74.20;;;;;;5014361;28;20466;-80
2021/11/25 06:40:29;;;;;;;3.70;1.02;;;7.30;74.20;;;;;;5005427;28;20065;-80
2021/11/25 06:42:57;;;;;;;1.95;0.73;;;7.30;74.30;;;;;;5018498;28;20056;-78
2021/11/25 06:45:24;;;;;;;4.00;0.70;;;7.30;74.40;;;;;;5008093;28;20058;-79
2021/11/25 06:47:50;;;;;;;4.05;1.02;;;7.40;74.60;;;;;;5009866;28;20050;-75
2021/11/25 06:50:18;;;;;;;4.05;1.27;;;7.40;74.60;;;;;;5025915;28;20382;-80
2021/11/25 06:52:45;;;;;;;5.32;1.00;;;7.40;74.60;;;;;;5024803;28;20296;-76
2021/11/25 06:55:11;;;;;;;5.18;1.10;;;7.40;74.60;;;;;;5026009;28;20610;-79
2021/11/25 06:57:38;;;;;;;5.40;0.93;;;7.30;74.40;;;;;;5024924;28;20037;-80
2021/11/25 07:00:08;;;;;;;5.65;1.13;;;7.30;74.50;;;;;;5025146;28;20032;-78
2021/11/25 07:02:34;;;;;;;2.70;0.68;;;7.30;74.50;;;;;;5024381;28;20056;-82
2021/11/25 07:05:02;;;;;;;3.53;1.15;;;7.30;74.60;;;;;;5011679;28;20029;-77
2021/11/25 07:07:29;;;;;;;4.35;0.80;;;7.30;74.60;;;;;;5019816;28;20045;-79
2021/11/25 07:09:55;;;;;;;2.15;1.02;;;7.20;74.40;;;;;;5012993;28;20038;-80
2021/11/25 07:12:21;;;;;;;3.97;0.75;;;7.20;74.40;;;;;;5009544;28;20124;-78
2021/11/25 07:14:47;;;;;;;5.95;0.93;;;7.20;74.40;;;;;;5007608;28;20022;-83
2021/11/25 07:17:13;;;;;;;2.33;0.60;;;7.20;74.40;;;;;;5007666;28;20030;-80
2021/11/25 07:19:39;;;;;;;3.55;0.93;;;7.10;74.30;;;;;;5010117;28;20030;-78
2021/11/25 07:22:05;;;;;;;2.15;1.48;;;7.10;74.30;;;;;;5013601;28;20045;-78
2021/11/25 07:24:31;;;;;;;4.72;1.02;;;7.10;74.40;;;;;;5006368;28;20370;-77
2021/11/25 07:26:57;;;;;;;6.45;0.98;;;7.10;74.40;;;;;;5012676;28;20362;-86
2021/11/25 07:29:24;;;;;;;4.38;0.98;;;7.10;74.40;;;;;;5007738;28;20400;-79
2021/11/25 07:31:51;;;;;;;2.90;1.10;;;7.10;74.50;;;;;;5005106;28;20095;-78
2021/11/25 07:34:17;;;;;;;1.45;0.60;;;7.10;74.50;;;;;;5003035;28;20380;-79
2021/11/25 07:36:43;;;;;;;2.35;0.63;;;7.00;74.30;;;;;;5004739;28;20037;-78
2021/11/25 07:39:09;;;;;;;5.60;1.20;;;7.00;74.30;;;;;;5015176;28;20307;-77
2021/11/25 07:41:38;;;;;;;5.53;0.88;;;7.00;74.30;;;;;;5024500;28;20034;-86
2021/11/25 07:44:05;;;;;;;3.13;0.93;;;7.10;74.50;;;;;;5029862;28;20033;-77
2021/11/25 07:46:32;;;;;;;2.85;0.90;;;7.00;74.30;;;;;;5030186;28;20117;-84
2021/11/25 07:48:59;;;;;;;5.72;1.23;;;7.00;74.30;;;;;;5015945;28;20704;-80
2021/11/25 07:51:25;;;;;;;5.57;1.20;;;7.00;74.30;;;;;;5008502;28;20453;-82
2021/11/25 07:53:51;;;;;;;1.83;0.88;;;7.00;74.30;;;;;;5007747;28;20053;-83
2021/11/25 07:56:17;;;;;;;3.97;0.85;;;7.00;74.30;;;;;;5009039;28;20088;-78
2021/11/25 07:58:43;;;;;;;2.25;0.80;;;7.00;74.30;;;;;;5009024;28;20144;-78
2021/11/25 08:01:09;;;;;;;2.15;0.63;;;7.00;74.30;;;;;;5009349;28;20040;-80
2021/11/25 08:03:35;;;;;;;3.22;1.15;;;7.00;74.30;;;;;;5017828;28;20044;-86
2021/11/25 08:06:01;;;;;;;4.03;0.95;;;7.00;74.30;;;;;;5030534;28;20432;-81
2021/11/25 08:08:27;;;;;;;2.78;0.60;;;6.90;74.20;;;;;;5031066;28;20087;-82
2021/11/25 08:10:53;;;;;;;2.60;1.08;;;7.00;74.40;;;;;;5035992;28;20037;-82
2021/11/25 08:13:19;;;;;;;2.58;0.93;;;7.00;74.40;;;;;;5033895;28;20095;-84
2021/11/25 08:15:45;;;;;;;3.20;1.20;;;7.00;74.40;;;;;;5032973;28;20452;-79
2021/11/25 08:18:11;;;;;;;2.92;0.80;;;6.90;74.20;;;;;;5033438;28;20436;-77
2021/11/25 08:20:37;;;;;;;3.50;0.80;;;6.90;74.70;;;;;;5027840;28;20499;-84
2021/11/25 08:23:03;;;;;;;2.38;1.02;;;7.00;74.40;;;;;;5029151;28;20108;-77
2021/11/25 08:25:29;;;;;;;3.47;1.30;;;7.00;74.40;;;;;;5027414;28;20029;-79
2021/11/25 08:27:56;;;;;;;3.83;1.02;;;7.00;74.40;;;;;;5029358;28;20544;-76
2021/11/25 08:30:24;;;;;;;3.10;1.20;;;7.00;74.40;;;;;;5028789;28;20037;-78
2021/11/25 08:32:51;;;;;;;2.50;0.85;;;7.00;74.40;;;;;;5027337;28;20034;-76
2021/11/25 08:35:17;;;;;;;3.60;0.73;;;7.00;74.40;;;;;;5047380;23;20067;-74
2021/11/25 08:37:43;;;;;;;3.72;1.10;;;7.00;74.40;;;;;;5065142;28;20554;-73
2021/11/25 08:40:12;;;;;;;1.67;0.70;;;7.10;74.60;;;;;;5047247;28;20032;-73
2021/11/25 08:42:39;;;;;;;1.65;0.80;;;7.10;74.50;;;;;;5045711;28;20036;-74
2021/11/25 08:45:06;;;;;;;3.08;1.00;;;7.10;74.50;;;;;;5045129;28;20055;-73
2021/11/25 08:47:32;;;;;;;3.17;0.70;;;7.10;74.50;;;;;;5047657;28;20148;-74
2021/11/25 08:49:58;;;;;;;6.63;1.55;;;7.10;74.50;;;;;;5067593;28;20187;-73
2021/11/25 08:52:24;;;;;;;3.08;0.73;;;7.10;74.40;;;;;;5049659;28;20036;-73
2021/11/25 08:54:50;;;;;;;4.43;1.15;;;7.10;74.40;;;;;;5067586;28;20024;-72
2021/11/25 08:57:19;;;;;;;5.53;1.35;;;7.10;74.50;;;;;;5068077;28;20036;-71
2021/11/25 08:59:45;;;;;;;4.60;1.38;;;7.10;74.40;;;;;;5048100;28;20418;-72
2021/11/25 09:02:12;;;;;;;2.47;0.93;;;7.20;74.60;;;;;;5047615;28;20032;-73
2021/11/25 09:04:38;;;;;;;4.65;0.70;;;7.20;74.60;;;;;;5026243;28;20082;-72
2021/11/25 09:07:04;;;;;;;2.67;0.63;;;7.20;74.60;;;;;;5027475;28;20510;-74
2021/11/25 09:09:31;;;;;;;2.28;0.90;;;7.20;74.60;;;;;;5025948;28;20212;-74
2021/11/25 09:11:57;;;;;;;4.13;0.77;;;7.30;74.70;;;;;;5027701;28;20056;-76
2021/11/25 09:14:23;;;;;;;2.38;0.70;;;7.30;74.70;;;;;;5026475;28;20026;-74
2021/11/25 09:16:49;;;;;;;3.97;1.42;;;7.30;74.60;;;;;;5027456;28;20029;-75
2021/11/25 09:19:16;;;;;;;4.03;1.75;;;7.30;74.60;;;;;;5042250;28;20487;-74
2021/11/25 09:21:42;;;;;;;3.25;0.90;;;7.30;74.60;;;;;;5047116;28;20033;-76
2021/11/25 09:24:09;;;;;;;4.45;0.93;;;7.30;74.60;;;;;;5047379;28;20029;-75
2021/11/25 09:26:36;;;;;;;2.83;1.25;;;7.30;74.60;;;;;;5045544;28;20120;-74
2021/11/25 09:29:03;;;;;;;3.10;0.75;;;7.40;74.70;;;;;;5047028;28;20115;-74
2021/11/25 09:31:31;;;;;;;2.45;0.77;;;7.40;74.70;;;;;;5046919;28;20042;-74
2021/11/25 09:33:58;;;;;;;2.90;0.80;;;7.40;74.60;;;;;;5047176;28;20040;-75
2021/11/25 09:36:25;;;;;;;3.70;1.10;;;7.40;74.60;;;;;;5046082;28;20037;-74
2021/11/25 09:38:53;;;;;;;3.63;0.77;;;7.40;74.60;;;;;;5047392;28;20025;-74
2021/11/25 09:41:20;;;;;;;2.17;0.50;;;7.50;74.70;;;;;;5046684;28;20422;-74
2021/11/25 09:43:46;;;;;;;5.63;1.08;;;7.50;74.70;;;;;;5046019;28;20052;-75
2021/11/25 09:46:13;;;;;;;6.50;1.70;;;7.50;74.60;;;;;;5046690;28;20568;-75
2021/11/25 09:48:40;;;;;;;3.95;1.10;;;7.50;74.60;;;;;;5045328;28;20025;-75
2021/11/25 09:51:09;;;;;;;2.58;0.85;;;7.50;74.50;;;;;;5046812;28;20037;-75
2021/11/25 09:53:36;;;;;;;3.80;0.85;;;7.60;74.60;;;;;;5046545;28;20035;-76
2021/11/25 09:56:06;;;;;;;3.65;0.85;;;7.60;74.60;;;;;;5047182;28;20403;-73
2021/11/25 09:58:35;;;;;;;3.55;0.90;;;7.60;74.60;;;;;;5046713;28;20025;-74
2021/11/25 10:01:10;;;;;;;3.58;0.80;;;7.60;74.60;;;;;;5046921;28;20372;-75
2021/11/25 10:03:37;;;;;;;3.70;1.00;;;7.60;74.50;;;;;;5046311;28;20049;-74
2021/11/25 10:06:04;;;;;;;2.70;0.82;;;7.60;74.50;;;;;;5046542;28;20028;-73
2021/11/25 10:08:36;;;;;;;4.28;0.88;;;7.60;74.40;;;;;;5046078;28;20087;-75
2021/11/25 10:11:03;;;;;;;3.55;1.15;;;7.70;74.60;;;;;;5028359;28;20360;-76
2021/11/25 10:13:44;;;;;;;4.40;0.90;;;7.70;74.50;;;;;;5019349;28;20091;-73
2021/11/25 10:16:14;;;;;;;5.20;1.10;;;7.70;74.40;;;;;;5041386;28;20415;-75
2021/11/25 10:18:41;;;;;;;2.30;0.70;;;7.70;74.40;;;;;;5035855;28;20044;-75
2021/11/25 10:21:17;;;;;;;2.13;0.70;;;7.70;74.40;;;;;;5046514;28;20021;-74
2021/11/25 10:23:46;;;;;;;2.67;0.88;;;7.80;74.50;;;;;;5045902;28;20033;-77
2021/11/25 10:26:23;;;;;;;1.85;1.38;;;7.80;75.00;;;;;;5045195;28;20487;-77
2021/11/25 10:28:58;;;;;;;3.95;1.45;;;7.80;74.40;;;;;;5046369;28;20052;-75
2021/11/25 10:31:31;;;;;;;4.32;0.93;;;7.80;74.40;;;;;;5046342;28;20376;-75
2021/11/25 10:34:03;;;;;;;2.67;1.10;;;7.80;74.80;;;;;;5046275;28;20044;-74
2021/11/25 10:39:25;;;;;;;4.82;0.82;;;7.90;74.40;;;;;;5045908;28;20108;-76
2021/11/25 10:41:57;;;;;;;3.35;1.17;;;7.90;74.40;;;;;;5046042;28;20048;-75
2021/11/25 10:44:26;;;;;;;2.45;1.00;;;8.00;74.50;;;;;;5045977;28;20327;-77
2021/11/25 10:47:12;;;;;;;5.15;1.05;;;8.00;74.50;;;;;;5045892;28;20036;-74
2021/11/25 10:49:49;;;;;;;2.97;1.30;;;8.00;74.40;;;;;;5045185;28;20552;-77
2021/11/25 10:52:25;;;;;;;3.03;0.80;;;8.00;74.30;;;;;;5044608;28;20041;-77
2021/11/25 10:54:53;;;;;;;3.05;0.90;;;8.00;74.30;;;;;;5045787;28;20438;-77
2021/11/25 10:57:22;;;;;;;2.17;0.85;;;8.00;74.20;;;;;;5046274;28;20491;-72
2021/11/25 10:59:52;;;;;;;5.10;1.05;;;8.00;74.20;;;;;;5044559;28;20543;-77
2021/11/25 11:02:29;;;;;;;4.47;1.10;;;8.00;74.20;;;;;;5045650;28;20075;-75
2021/11/25 11:05:01;;;;;;;5.85;1.38;;;8.10;74.30;;;;;;5045767;28;20518;-77
2021/11/25 11:07:34;;;;;;;2.63;0.80;;;8.10;74.30;;;;;;5044536;28;20037;-77
2021/11/25 11:10:15;;;;;;;3.33;1.00;;;8.10;74.20;;;;;;5031930;28;20169;-75
2021/11/25 11:13:00;;;;;;;2.05;0.80;;;8.10;74.20;;;;;;5025805;28;20073;-75
2021/11/25 11:15:29;;;;;;;4.22;0.90;;;8.20;74.30;;;;;;5029837;28;20453;-78
2021/11/25 11:20:26;;;;;;;3.95;1.13;;;8.10;74.00;;;;;;5027414;28;20036;-77
2021/11/25 11:23:08;;;;;;;2.67;0.75;;;8.20;74.20;;;;;;5029462;28;20030;-78
2021/11/25 11:25:36;;;;;;;3.65;0.95;;;8.20;74.10;;;;;;5029389;28;20025;-76
2021/11/25 11:28:05;;;;;;;3.85;0.90;;;8.20;74.10;;;;;;5028240;28;20108;-75
2021/11/25 11:30:34;;;;;;;2.53;0.90;;;8.20;74.00;;;;;;5029616;28;20033;-73
2021/11/25 11:33:03;;;;;;;4.70;1.15;;;8.30;74.10;;;;;;5028262;28;20400;-75
2021/11/25 11:35:31;;;;;;;3.03;0.98;;;8.30;74.10;;;;;;5036748;28;20045;-77
2021/11/25 11:38:00;;;;;;;4.55;1.20;;;8.30;74.00;;;;;;5041441;28;20060;-74
2021/11/25 11:40:30;;;;;;;3.95;1.00;;;8.30;74.00;;;;;;5044920;28;20196;-76
2021/11/25 11:43:00;;;;;;;1.83;0.80;;;8.30;73.90;;;;;;5041727;28;20129;-75
2021/11/25 11:45:29;;;;;;;3.75;1.15;;;8.40;74.10;;;;;;5031321;28;20037;-74
2021/11/25 11:47:58;;;;;;;4.65;0.93;;;8.30;73.80;;;;;;5029291;28;20040;-77
2021/11/25 11:50:54;;;;;;;4.90;2.28;;;8.40;73.90;;;;;;5028725;28;20040;-75
2021/11/25 11:53:23;;;;;;;5.68;1.27;;;8.40;73.80;;;;;;5027829;28;20045;-76
2021/11/25 11:56:01;;;;;;;4.63;1.15;;;8.50;74.20;;;;;;5027531;28;20029;-74
2021/11/25 11:58:34;;;;;;;5.70;1.80;;;8.50;74.60;;;;;;5035125;28;20496;-75
2021/11/25 12:01:12;;;;;;;4.88;1.35;;;8.60;74.80;;;;;;5049120;28;20035;-77
2021/11/25 12:03:40;;;;;;;2.63;0.90;;;8.70;74.90;;;;;;5039766;28;20091;-74
2021/11/25 12:06:08;;;;;;;8.25;1.80;;;8.70;74.80;;;;;;5042767;28;20480;-74
2021/11/25 12:08:35;;;;;;;3.22;1.10;;;8.70;74.80;;;;;;5040017;28;20033;-74
2021/11/25 12:11:05;;;;;;;5.63;1.35;;;8.80;74.90;;;;;;5030272;28;20040;-75
2021/11/25 12:13:56;;;;;;;6.22;1.45;;;8.80;74.80;;;;;;5027311;28;20415;-74
2021/11/25 12:16:22;;;;;;;2.55;1.25;;;8.80;74.70;;;;;;5059157;28;20400;-75
2021/11/25 12:18:53;;;;;;;3.88;0.98;;;8.80;74.70;;;;;;5047566;28;20038;-74
2021/11/25 12:21:39;;;;;;;4.13;1.45;;;8.80;74.60;;;;;;5027905;28;20033;-74
2021/11/25 12:24:17;;;;;;;4.50;1.10;;;8.80;74.50;;;;;;5026995;28;20388;-74
2021/11/25 12:27:18;;;;;;;4.00;0.98;;;8.80;74.50;;;;;;5028445;28;20034;-73
2021/11/25 12:29:57;;;;;;;3.83;1.05;;;8.90;74.60;;;;;;5026712;28;20793;-74
2021/11/25 12:32:36;;;;;;;2.65;1.13;;;8.90;74.50;;;;;;5026572;28;20480;-74
2021/11/25 12:35:12;;;;;;;2.88;1.52;;;8.90;74.50;;;;;;5027174;28;20140;-73
2021/11/25 12:37:41;;;;;;;2.92;0.98;;;8.90;74.40;;;;;;5026415;28;20087;-74
2021/11/25 12:40:14;;;;;;;2.40;0.68;;;8.90;74.40;;;;;;5026799;28;20033;-74
2021/11/25 12:43:05;;;;;;;5.35;1.10;;;8.90;74.30;;;;;;5028092;28;20121;-74
2021/11/25 12:45:45;;;;;;;4.65;1.25;;;9.00;74.40;;;;;;5028211;28;20035;-75
2021/11/25 12:48:18;;;;;;;3.63;1.08;;;9.00;74.30;;;;;;5040458;28;20021;-74
2021/11/25 12:50:53;;;;;;;5.95;1.40;;;9.00;74.20;;;;;;5060180;28;20032;-77
2021/11/25 12:53:29;;;;;;;3.22;1.05;;;9.00;74.20;;;;;;5056746;28;20125;-73
2021/11/25 12:56:03;;;;;;;3.83;0.80;;;9.00;74.10;;;;;;5027548;28;20052;-74
2021/11/25 12:59:05;;;;;;;5.35;1.02;;;9.00;74.00;;;;;;5026469;28;20587;-74
2021/11/25 13:01:31;;;;;;;3.35;0.95;;;9.10;74.10;;;;;;4978752;28;20541;-74
2021/11/25 13:04:16;;;;;;;5.15;1.52;;;9.10;74.10;;;;;;5009973;28;20491;-75
2021/11/25 13:06:55;;;;;;;5.38;1.25;;;9.20;74.10;;;;;;5026452;28;20483;-74
2021/11/25 13:09:25;;;;;;;4.25;1.15;;;9.10;73.80;;;;;;5023784;28;20052;-77
2021/11/25 13:11:52;;;;;;;3.65;1.17;;;9.10;73.80;;;;;;5045784;28;20064;-75